Kezdőlap
METAR-TAF:

METAR-TAF

Repülőterek :

Logan County Airport

Lincoln, Illinois, Amerikai Egyesült Államok

földrajzi szélesség: 40-09-31N, földrajzi hosszúság: 089-20-06W, magasság: 182 m

Jelenlegi meteorológiai megfigyelések

A jelentés 13 perccel ezelõtt készült, 14:55 UTC
Északi szél 15 kt széllökések: 20 kt
Hőmérséklet 4°C
Páratartalom 75%
Légköri nyomás 1024 hPa
Látótávolság: 16.1 km
Szórványos felhőzet 2000 lábon

METAR: KAAA 061455Z AUTO 36015G20KT 10SM SCT020 04/00 A3023 RMK AO2 T00370001

Idő: 09:08 (15:08 UTC)


TAF: hiányzik

Meteorológiai megfigyelések és előrejelzések több, mint 4000 repülőtéren (METAR és TAF jelentéseket).

A térképen piros és sárga pontok jelzik az elérhető meteorológiai állomásokat.

Mozgassa az egeret a pont fölött, hogy megjelenjen az állomás neve.

Azután kattintson az időjárási megfigyelések és előrejelzések megtekintéséhez.

A térkép megváltoztatása: kattintson a fekete keresztel jelölt zöld gombra ráközelítéshez, a vonallal jelölt zöld gombra távolításhoz, vagy a zöld nyilakra a szomszédos térképek eléréséhez.


METAR-TAF: